createdAt,value
2024-05-09T00:01:48.115Z,98370.63
2024-05-09T00:04:21.060Z,98370.63
2024-05-09T00:06:50.889Z,98362.13
2024-05-09T00:09:20.670Z,98362.78
2024-05-09T00:11:50.586Z,98363.09
2024-05-09T00:14:20.394Z,98362.44
2024-05-09T00:16:51.116Z,98358.06
2024-05-09T00:19:21.041Z,98358.41
2024-05-09T00:21:50.917Z,98363.56
2024-05-09T00:24:20.650Z,98361.91
2024-05-09T00:26:50.372Z,98356.72
2024-05-09T00:29:20.240Z,98358.56
2024-05-09T00:31:50.282Z,98363.06
2024-05-09T00:34:20.169Z,98360.41
2024-05-09T00:36:50.127Z,98362.06
2024-05-09T00:39:19.972Z,98357.03
2024-05-09T00:41:49.857Z,98349.88
2024-05-09T00:44:19.686Z,98354.38
2024-05-09T00:46:54.633Z,98350.19
2024-05-09T00:49:25.144Z,98351.34
2024-05-09T00:51:57.884Z,98348.69
2024-05-09T00:54:29.088Z,98340.84
2024-05-09T00:56:59.361Z,98336.31
2024-05-09T00:59:29.354Z,98336.63
2024-05-09T01:02:01.112Z,98335.97
2024-05-09T01:04:31.004Z,98336.13
2024-05-09T01:07:00.898Z,98340.75
2024-05-09T01:09:30.888Z,98339.09
2024-05-09T01:12:00.932Z,98331.25
2024-05-09T01:14:30.798Z,98333.06
2024-05-09T01:17:00.671Z,98331.41
2024-05-09T01:19:33.344Z,98334.22
2024-05-09T01:22:04.607Z,98335.19
2024-05-09T01:24:34.396Z,98338.88
2024-05-09T01:27:04.278Z,98341.53
2024-05-09T01:29:34.217Z,98336.19
2024-05-09T01:32:05.226Z,98337.06
2024-05-09T01:34:35.092Z,98343.22
2024-05-09T01:37:04.874Z,98338.88
2024-05-09T01:39:34.695Z,98337.22
2024-05-09T01:42:04.569Z,98342.81
2024-05-09T01:44:34.319Z,98335.78
2024-05-09T01:47:04.296Z,98333.13
2024-05-09T01:49:38.905Z,98344.78
2024-05-09T01:52:08.910Z,98339.63
2024-05-09T01:54:38.732Z,98341.44
2024-05-09T01:57:08.690Z,98333.44
2024-05-09T01:59:38.533Z,98341.44
2024-05-09T02:02:11.569Z,98344.09
2024-05-09T02:04:41.996Z,98333.59
2024-05-09T02:07:11.955Z,98334.59
2024-05-09T02:09:41.681Z,98334.44
2024-05-09T02:12:11.672Z,98342.59
2024-05-09T02:14:41.630Z,98344.25
2024-05-09T02:17:11.529Z,98348.78
2024-05-09T02:19:41.331Z,98344.41
2024-05-09T02:22:11.070Z,98341.59
2024-05-09T02:24:40.979Z,98335.59
2024-05-09T02:27:10.668Z,98338.09
2024-05-09T02:29:41.850Z,98336.25
2024-05-09T02:32:11.684Z,98337.78
2024-05-09T02:34:41.621Z,98347.47
2024-05-09T02:37:11.376Z,98341.13
2024-05-09T02:39:38.536Z,98350.81
2024-05-09T02:42:08.483Z,98341.13
2024-05-09T02:44:35.660Z,98335.13
2024-05-09T02:47:05.506Z,98342.13
2024-05-09T02:49:32.763Z,98341.44
2024-05-09T02:52:02.671Z,98350.28
2024-05-09T02:54:29.757Z,98347.31
2024-05-09T02:56:59.539Z,98350.13
2024-05-09T02:59:26.701Z,98350.13
2024-05-09T03:01:56.673Z,98342.13
2024-05-09T03:04:23.892Z,98343.13
2024-05-09T03:06:53.712Z,98337.09
2024-05-09T03:09:24.145Z,98342.28
2024-05-09T03:11:54.989Z,98344.09
2024-05-09T03:14:22.298Z,98346.78
2024-05-09T03:16:52.149Z,98350.44
2024-05-09T03:19:19.349Z,98356.63
2024-05-09T03:21:49.257Z,98358.44
2024-05-09T03:24:16.341Z,98349.75
2024-05-09T03:26:46.052Z,98359.59
2024-05-09T03:29:13.274Z,98343.75
2024-05-09T03:31:43.055Z,98350.59
2024-05-09T03:34:11.323Z,98343.06
2024-05-09T03:36:45.766Z,98350.22
2024-05-09T03:39:15.738Z,98350.22
2024-05-09T03:41:45.582Z,98346.88
2024-05-09T03:44:15.360Z,98342.69
2024-05-09T03:46:42.488Z,98347.84
2024-05-09T03:49:12.474Z,98348.03
2024-05-09T03:51:39.879Z,98347.19
2024-05-09T03:54:09.682Z,98346.66
2024-05-09T03:56:37.994Z,98347.50
2024-05-09T03:59:07.952Z,98346.50
2024-05-09T04:01:38.204Z,98352.69
2024-05-09T04:04:09.005Z,98350.16
2024-05-09T04:06:36.282Z,98351.97
2024-05-09T04:09:06.108Z,98360.00
2024-05-09T04:11:33.418Z,98357.63
2024-05-09T04:14:06.476Z,98354.13
2024-05-09T04:16:33.633Z,98362.16
2024-05-09T04:19:03.533Z,98372.97
2024-05-09T04:21:30.703Z,98370.97
2024-05-09T04:24:00.516Z,98370.97
2024-05-09T04:26:27.749Z,98376.16
2024-05-09T04:28:58.289Z,98371.81
2024-05-09T04:31:25.507Z,98369.16
2024-05-09T04:33:55.370Z,98372.66
2024-05-09T04:36:22.551Z,98373.47
2024-05-09T04:38:52.412Z,98385.00
2024-05-09T04:41:20.467Z,98382.03
2024-05-09T04:43:50.871Z,98382.03
2024-05-09T04:46:18.191Z,98381.16
2024-05-09T04:48:48.918Z,98377.38
2024-05-09T04:51:18.800Z,98389.72
2024-05-09T04:53:48.671Z,98388.72
2024-05-09T04:56:15.819Z,98390.38
2024-05-09T04:58:45.706Z,98383.38
2024-05-09T05:01:13.107Z,98385.91
2024-05-09T05:03:43.024Z,98381.09
2024-05-09T05:06:10.410Z,98381.63
2024-05-09T05:08:40.341Z,98380.63
2024-05-09T05:11:07.645Z,98385.81
2024-05-09T05:13:41.357Z,98399.66
2024-05-09T05:16:08.797Z,98398.59
2024-05-09T05:18:38.814Z,98394.75
2024-05-09T05:21:06.367Z,98399.78
2024-05-09T05:23:40.779Z,98401.28
2024-05-09T05:26:10.106Z,98396.66
2024-05-09T05:28:39.913Z,98401.84
2024-05-09T05:31:07.042Z,98395.19
2024-05-09T05:33:36.985Z,98399.09
2024-05-09T05:36:04.518Z,98394.25
2024-05-09T05:38:34.302Z,98397.16
2024-05-09T05:41:01.592Z,98396.00
2024-05-09T05:43:32.192Z,98395.84
2024-05-09T05:45:59.262Z,98399.03
2024-05-09T05:48:29.259Z,98410.06
2024-05-09T05:50:56.560Z,98396.41
2024-05-09T05:53:26.543Z,98399.28
2024-05-09T05:55:53.746Z,98403.16
2024-05-09T05:58:23.674Z,98398.03
2024-05-09T06:00:53.303Z,98401.56
2024-05-09T06:03:23.317Z,98405.13
2024-05-09T06:05:50.654Z,98401.81
2024-05-09T06:08:20.671Z,98399.06
2024-05-09T06:10:48.000Z,98396.59
2024-05-09T06:13:18.471Z,98396.59
2024-05-09T06:15:45.602Z,98393.81
2024-05-09T06:18:18.256Z,98398.34
2024-05-09T06:20:45.915Z,98395.34
2024-05-09T06:23:16.987Z,98396.06
2024-05-09T06:25:44.234Z,98391.72
2024-05-09T06:28:14.381Z,98392.91
2024-05-09T06:30:42.868Z,98393.75
2024-05-09T06:33:16.324Z,98397.00
2024-05-09T06:35:46.206Z,98394.13
2024-05-09T06:38:16.341Z,98390.28
2024-05-09T06:40:44.554Z,98385.09
2024-05-09T06:43:19.635Z,98385.59
2024-05-09T06:45:49.028Z,98383.91
2024-05-09T06:48:22.802Z,98387.28
2024-05-09T06:50:50.849Z,98388.75
2024-05-09T06:53:25.263Z,98391.41
2024-05-09T06:55:52.691Z,98394.72
2024-05-09T06:58:22.521Z,98399.59
2024-05-09T07:00:49.727Z,98399.75
2024-05-09T07:03:19.967Z,98395.00
2024-05-09T07:05:48.985Z,98394.16
2024-05-09T07:08:20.005Z,98394.09
2024-05-09T07:10:47.507Z,98396.22
2024-05-09T07:13:17.978Z,98402.22
2024-05-09T07:15:45.350Z,98393.97
2024-05-09T07:18:20.312Z,98386.91
2024-05-09T07:20:51.573Z,98397.06
2024-05-09T07:23:21.711Z,98389.59
2024-05-09T07:25:48.990Z,98391.72
2024-05-09T07:28:21.615Z,98394.81
2024-05-09T07:30:48.839Z,98381.78
2024-05-09T07:33:22.091Z,98394.44
2024-05-09T07:35:50.681Z,98388.19
2024-05-09T07:38:20.679Z,98387.72
2024-05-09T07:40:48.218Z,98398.03
2024-05-09T07:43:18.454Z,98392.38
2024-05-09T07:45:52.389Z,98386.75
2024-05-09T07:50:00.848Z,98379.97
2024-05-09T07:53:52.269Z,98379.03
2024-05-09T07:56:23.480Z,98386.88
2024-05-09T07:58:55.666Z,98385.00
2024-05-09T08:01:26.520Z,98387.22
2024-05-09T08:03:57.549Z,98393.31
2024-05-09T08:06:25.561Z,98390.41
2024-05-09T08:08:56.005Z,98382.41
2024-05-09T08:11:24.308Z,98374.66
2024-05-09T08:13:54.278Z,98371.31
2024-05-09T08:16:21.750Z,98374.69
2024-05-09T08:18:51.908Z,98369.16
2024-05-09T08:21:19.538Z,98365.69
2024-05-09T08:23:49.374Z,98368.84
2024-05-09T08:26:16.503Z,98368.44
2024-05-09T08:28:46.309Z,98365.94
2024-05-09T08:31:13.615Z,98369.50
2024-05-09T08:33:51.660Z,98376.28
2024-05-09T08:36:19.071Z,98370.47
2024-05-09T08:38:48.940Z,98369.81
2024-05-09T08:41:16.053Z,98368.28
2024-05-09T08:43:47.762Z,98371.53
2024-05-09T08:46:15.750Z,98372.78
2024-05-09T08:48:48.334Z,98372.50
2024-05-09T08:51:15.660Z,98378.47
2024-05-09T08:53:45.613Z,98370.94
2024-05-09T08:56:14.422Z,98371.06
2024-05-09T08:58:45.551Z,98371.44
2024-05-09T09:01:15.726Z,98371.84
2024-05-09T09:03:47.976Z,98377.41
2024-05-09T09:06:21.678Z,98373.41
2024-05-09T09:08:51.925Z,98381.66
2024-05-09T09:11:19.288Z,98382.50
2024-05-09T09:13:49.104Z,98373.59
2024-05-09T09:16:17.242Z,98381.03
2024-05-09T09:18:47.540Z,98382.91
2024-05-09T09:21:14.752Z,98377.69
2024-05-09T09:23:44.678Z,98384.31
2024-05-09T09:26:17.008Z,98378.25
2024-05-09T09:28:47.411Z,98389.03
2024-05-09T09:31:19.455Z,98385.06
2024-05-09T09:33:49.971Z,98395.84
2024-05-09T09:36:18.497Z,98393.13
2024-05-09T09:38:51.373Z,98394.13
2024-05-09T09:41:21.241Z,98395.84
2024-05-09T09:43:51.308Z,98398.53
2024-05-09T09:46:19.628Z,98393.56
2024-05-09T09:48:51.362Z,98387.81
2024-05-09T09:51:19.368Z,98386.44
2024-05-09T09:56:18.705Z,98387.72
2024-05-09T09:58:49.594Z,98393.56
2024-05-09T10:01:16.859Z,98383.03
2024-05-09T10:03:47.900Z,98380.81
2024-05-09T10:06:16.070Z,98379.69
2024-05-09T10:08:48.967Z,98385.78
2024-05-09T10:11:21.317Z,98375.47
2024-05-09T10:13:51.360Z,98375.78
2024-05-09T10:16:22.337Z,98378.34
2024-05-09T10:18:52.646Z,98375.88
2024-05-09T10:21:20.714Z,98371.78
2024-05-09T10:24:00.638Z,98374.34
2024-05-09T10:26:35.340Z,98363.56
2024-05-09T10:29:20.001Z,98361.53
2024-05-09T10:31:48.368Z,98362.47
2024-05-09T10:34:26.701Z,98360.75
2024-05-09T10:36:54.801Z,98357.31
2024-05-09T10:39:25.222Z,98359.13
2024-05-09T10:41:52.538Z,98351.16
2024-05-09T10:44:24.573Z,98344.75
2024-05-09T10:46:54.662Z,98347.09
2024-05-09T10:49:25.828Z,98353.16
2024-05-09T10:51:53.400Z,98353.41
2024-05-09T10:54:23.289Z,98350.13
2024-05-09T10:56:59.582Z,98349.09
2024-05-09T10:59:42.472Z,98344.94
2024-05-09T11:02:11.089Z,98346.19
2024-05-09T11:04:45.171Z,98347.00
2024-05-09T11:07:16.567Z,98343.06
2024-05-09T11:09:46.861Z,98333.03
2024-05-09T11:12:14.343Z,98328.41
2024-05-09T11:14:55.354Z,98334.84
2024-05-09T11:17:22.546Z,98332.72
2024-05-09T11:19:54.005Z,98337.66
2024-05-09T11:22:22.169Z,98334.50
2024-05-09T11:24:52.631Z,98320.50
2024-05-09T11:27:23.712Z,98324.00
2024-05-09T11:29:53.491Z,98326.00
2024-05-09T11:32:29.861Z,98317.84
2024-05-09T11:35:02.589Z,98324.03
2024-05-09T11:37:35.427Z,98320.03
2024-05-09T11:40:13.610Z,98316.59
2024-05-09T11:42:47.701Z,98323.84
2024-05-09T11:45:18.441Z,98315.03
2024-05-09T11:47:45.639Z,98316.13
2024-05-09T11:50:22.607Z,98313.91
2024-05-09T11:52:56.642Z,98315.78
2024-05-09T11:55:28.187Z,98314.72
2024-05-09T11:57:56.131Z,98314.50
2024-05-09T12:00:33.980Z,98308.22
2024-05-09T12:03:05.702Z,98303.84
2024-05-09T12:05:36.417Z,98309.91
2024-05-09T12:08:03.969Z,98300.47
2024-05-09T12:10:36.021Z,98303.38
2024-05-09T12:13:06.104Z,98298.72
2024-05-09T12:15:43.319Z,98295.34
2024-05-09T12:18:10.627Z,98294.66
2024-05-09T12:20:40.534Z,98298.59
2024-05-09T12:23:10.222Z,98292.31
2024-05-09T12:25:42.235Z,98284.34
2024-05-09T12:28:09.663Z,98279.44
2024-05-09T12:30:41.560Z,98276.03
2024-05-09T12:33:13.847Z,98275.75
2024-05-09T12:35:47.296Z,98281.47
2024-05-09T12:38:16.532Z,98269.72
2024-05-09T12:40:46.465Z,98268.81
2024-05-09T12:43:13.677Z,98266.25
2024-05-09T12:45:43.766Z,98262.88
2024-05-09T12:48:12.383Z,98266.56
2024-05-09T12:50:43.571Z,98267.31
2024-05-09T12:53:10.913Z,98265.88
2024-05-09T12:55:48.769Z,98265.72
2024-05-09T12:58:23.594Z,98265.19
2024-05-09T13:00:54.915Z,98265.34
2024-05-09T13:03:22.360Z,98258.63
2024-05-09T13:05:55.903Z,98255.09
2024-05-09T13:08:23.131Z,98257.03
2024-05-09T13:10:53.190Z,98249.63
2024-05-09T13:13:20.560Z,98245.91
2024-05-09T13:15:50.607Z,98239.03
2024-05-09T13:18:17.894Z,98239.53
2024-05-09T13:20:47.665Z,98247.44
2024-05-09T13:23:14.873Z,98242.47
2024-05-09T13:25:44.747Z,98241.03
2024-05-09T13:28:11.882Z,98236.91
2024-05-09T13:30:42.442Z,98237.13
2024-05-09T13:33:15.857Z,98234.03
2024-05-09T13:35:49.659Z,98228.69
2024-05-09T13:38:22.353Z,98232.09
2024-05-09T13:40:52.710Z,98227.53
2024-05-09T13:43:22.035Z,98224.81
2024-05-09T13:45:52.493Z,98219.38
2024-05-09T13:48:20.000Z,98224.28
2024-05-09T13:50:50.152Z,98219.66
2024-05-09T13:53:17.334Z,98217.72
2024-05-09T13:55:47.252Z,98216.81
2024-05-09T13:58:14.748Z,98215.13
2024-05-09T14:00:48.768Z,98214.69
2024-05-09T14:03:19.213Z,98212.88
2024-05-09T14:05:51.859Z,98214.16
2024-05-09T14:08:20.078Z,98217.97
2024-05-09T14:10:53.757Z,98208.03
2024-05-09T14:13:21.273Z,98217.25
2024-05-09T14:15:54.060Z,98212.72
2024-05-09T14:18:21.605Z,98208.16
2024-05-09T14:20:51.441Z,98212.59
2024-05-09T14:23:18.634Z,98203.06
2024-05-09T14:25:52.148Z,98204.19
2024-05-09T14:28:21.967Z,98207.19
2024-05-09T14:30:51.832Z,98202.63
2024-05-09T14:33:25.405Z,98199.97
2024-05-09T14:35:58.757Z,98197.47
2024-05-09T14:38:27.378Z,98194.53
2024-05-09T14:40:57.191Z,98193.88
2024-05-09T14:43:24.640Z,98187.38
2024-05-09T14:45:55.862Z,98186.94
2024-05-09T14:48:23.428Z,98189.16
2024-05-09T14:50:53.220Z,98184.28
2024-05-09T14:53:20.527Z,98186.94
2024-05-09T14:55:50.796Z,98188.59
2024-05-09T14:58:18.330Z,98189.41
2024-05-09T15:00:51.342Z,98186.56
2024-05-09T15:03:20.648Z,98181.19
2024-05-09T15:05:51.984Z,98178.75
2024-05-09T15:08:20.251Z,98180.09
2024-05-09T15:10:51.049Z,98180.97
2024-05-09T15:13:20.671Z,98180.38
2024-05-09T15:15:51.233Z,98175.47
2024-05-09T15:18:18.692Z,98172.75
2024-05-09T15:20:49.023Z,98169.25
2024-05-09T15:23:16.646Z,98169.06
2024-05-09T15:25:47.162Z,98169.94
2024-05-09T15:28:14.637Z,98172.72
2024-05-09T15:30:46.549Z,98173.56
2024-05-09T15:33:14.901Z,98159.84
2024-05-09T15:35:46.708Z,98163.00
2024-05-09T15:38:15.719Z,98169.66
2024-05-09T15:40:45.855Z,98162.78
2024-05-09T15:43:13.336Z,98151.16
2024-05-09T15:45:43.833Z,98150.72
2024-05-09T15:48:11.623Z,98149.03
2024-05-09T15:50:42.827Z,98142.34
2024-05-09T15:53:13.157Z,98140.03
2024-05-09T15:55:44.281Z,98141.25
2024-05-09T15:58:12.411Z,98142.88
2024-05-09T16:00:44.827Z,98142.84
2024-05-09T16:03:14.710Z,98139.53
2024-05-09T16:05:49.039Z,98138.88
2024-05-09T16:08:16.897Z,98134.06
2024-05-09T16:10:48.253Z,98138.66
2024-05-09T16:13:17.176Z,98137.41
2024-05-09T16:15:47.916Z,98128.00
2024-05-09T16:18:15.239Z,98135.06
2024-05-09T16:20:47.481Z,98134.47
2024-05-09T16:23:16.733Z,98133.63
2024-05-09T16:25:48.043Z,98130.72
2024-05-09T16:28:16.030Z,98124.97
2024-05-09T16:30:45.837Z,98125.41
2024-05-09T16:33:13.327Z,98117.09
2024-05-09T16:35:43.539Z,98125.84
2024-05-09T16:38:10.880Z,98121.28
2024-05-09T16:40:41.585Z,98128.34
2024-05-09T16:43:13.348Z,98116.09
2024-05-09T16:45:45.790Z,98123.38
2024-05-09T16:48:14.241Z,98116.91
2024-05-09T16:50:44.421Z,98124.22
2024-05-09T16:53:11.678Z,98123.38
2024-05-09T16:55:41.373Z,98119.81
2024-05-09T16:58:08.885Z,98118.19
2024-05-09T17:00:42.448Z,98116.75
2024-05-09T17:03:15.160Z,98110.09
2024-05-09T17:05:47.632Z,98117.63
2024-05-09T17:08:16.745Z,98119.28
2024-05-09T17:10:49.831Z,98116.19
2024-05-09T17:13:20.444Z,98112.72
2024-05-09T17:15:51.790Z,98118.56
2024-05-09T17:18:22.467Z,98116.72
2024-05-09T17:20:52.635Z,98118.34
2024-05-09T17:23:19.778Z,98112.38
2024-05-09T17:25:49.604Z,98118.63
2024-05-09T17:28:17.069Z,98121.56
2024-05-09T17:30:46.912Z,98120.75
2024-05-09T17:33:14.304Z,98120.81
2024-05-09T17:35:45.882Z,98118.31
2024-05-09T17:38:13.330Z,98119.38
2024-05-09T17:40:43.246Z,98124.19
2024-05-09T17:43:11.120Z,98127.69
2024-05-09T17:45:44.271Z,98129.81
2024-05-09T17:48:12.324Z,98125.44
2024-05-09T17:50:42.980Z,98128.34
2024-05-09T17:53:11.144Z,98122.34
2024-05-09T17:55:41.547Z,98123.59
2024-05-09T17:58:09.938Z,98128.13
2024-05-09T18:00:42.224Z,98132.91
2024-05-09T18:03:12.235Z,98134.13
2024-05-09T18:05:44.700Z,98125.59
2024-05-09T18:08:13.260Z,98129.75
2024-05-09T18:10:43.496Z,98131.16
2024-05-09T18:13:13.556Z,98121.00
2024-05-09T18:15:45.208Z,98133.19
2024-05-09T18:18:12.990Z,98126.53
2024-05-09T18:20:45.733Z,98138.69
2024-05-09T18:23:16.420Z,98139.44
2024-05-09T18:25:48.505Z,98136.50
2024-05-09T18:28:16.847Z,98131.88
2024-05-09T18:30:47.385Z,98141.53
2024-05-09T18:33:15.183Z,98142.09
2024-05-09T18:35:48.817Z,98139.09
2024-05-09T18:38:16.016Z,98139.63
2024-05-09T18:40:49.016Z,98147.22
2024-05-09T18:43:17.300Z,98153.97
2024-05-09T18:45:48.490Z,98152.44
2024-05-09T18:48:18.583Z,98145.06
2024-05-09T18:50:45.808Z,98149.97
2024-05-09T18:53:17.158Z,98153.97
2024-05-09T18:55:44.441Z,98157.78
2024-05-09T18:58:17.177Z,98164.13
2024-05-09T19:00:47.168Z,98169.81
2024-05-09T19:03:19.701Z,98163.09
2024-05-09T19:05:47.397Z,98166.06
2024-05-09T19:08:17.900Z,98176.09
2024-05-09T19:10:45.964Z,98183.25
2024-05-09T19:13:16.592Z,98185.00
2024-05-09T19:15:44.690Z,98178.50
2024-05-09T19:18:18.057Z,98177.38
2024-05-09T19:20:45.331Z,98191.56
2024-05-09T19:23:15.359Z,98183.03
2024-05-09T19:25:42.470Z,98192.47
2024-05-09T19:28:12.286Z,98191.19
2024-05-09T19:30:42.124Z,98193.59
2024-05-09T19:33:14.542Z,98195.16
2024-05-09T19:35:43.252Z,98202.94
2024-05-09T19:38:14.111Z,98199.13
2024-05-09T19:40:42.095Z,98196.50
2024-05-09T19:43:12.172Z,98201.41
2024-05-09T19:45:39.770Z,98199.63
2024-05-09T19:48:10.566Z,98195.03
2024-05-09T19:50:42.885Z,98199.75
2024-05-09T19:53:15.406Z,98200.66
2024-05-09T19:55:43.053Z,98206.75
2024-05-09T19:58:13.942Z,98196.91
2024-05-09T20:00:43.354Z,98198.66
2024-05-09T20:03:16.134Z,98208.25
2024-05-09T20:05:46.393Z,98206.44
2024-05-09T20:08:16.796Z,98204.47
2024-05-09T20:10:44.267Z,98207.03
2024-05-09T20:13:14.243Z,98207.72
2024-05-09T20:15:41.500Z,98210.13
2024-05-09T20:18:11.476Z,98209.81
2024-05-09T20:20:42.001Z,98209.50
2024-05-09T20:23:14.833Z,98208.31
2024-05-09T20:25:42.889Z,98219.75
2024-05-09T20:28:13.141Z,98208.06
2024-05-09T20:30:40.614Z,98213.28
2024-05-09T20:33:10.786Z,98207.63
2024-05-09T20:35:38.104Z,98215.16
2024-05-09T20:38:08.453Z,98218.72
2024-05-09T20:40:38.497Z,98220.41
2024-05-09T20:43:11.319Z,98215.91
2024-05-09T20:45:38.922Z,98225.50
2024-05-09T20:48:10.632Z,98226.16
2024-05-09T20:50:41.087Z,98230.34
2024-05-09T20:53:15.206Z,98234.53
2024-05-09T20:55:44.264Z,98222.19
2024-05-09T20:58:14.828Z,98219.47
2024-05-09T21:00:45.507Z,98221.84
2024-05-09T21:03:17.834Z,98217.50
2024-05-09T21:05:46.073Z,98221.03
2024-05-09T21:08:16.291Z,98216.50
2024-05-09T21:10:43.721Z,98225.03
2024-05-09T21:13:13.896Z,98220.03
2024-05-09T21:15:41.250Z,98219.03
2024-05-09T21:18:11.739Z,98213.50
2024-05-09T21:20:38.980Z,98215.00
2024-05-09T21:23:08.988Z,98212.84
2024-05-09T21:25:36.161Z,98211.50
2024-05-09T21:28:06.439Z,98212.00
2024-05-09T21:30:41.267Z,98211.81
2024-05-09T21:33:16.451Z,98212.16
2024-05-09T21:35:44.647Z,98213.47
2024-05-09T21:38:16.109Z,98217.44
2024-05-09T21:40:44.347Z,98222.28
2024-05-09T21:43:14.863Z,98218.41
2024-05-09T21:45:42.624Z,98210.56
2024-05-09T21:48:14.835Z,98213.75
2024-05-09T21:50:42.662Z,98215.06
2024-05-09T21:53:17.137Z,98220.06
2024-05-09T21:55:44.804Z,98210.03
2024-05-09T21:58:16.931Z,98214.84
2024-05-09T22:00:46.375Z,98211.00
2024-05-09T22:03:17.427Z,98207.66
2024-05-09T22:05:45.351Z,98208.81
2024-05-09T22:08:15.722Z,98210.28
2024-05-09T22:10:43.011Z,98209.78
2024-05-09T22:13:12.989Z,98204.78
2024-05-09T22:15:40.830Z,98202.25
2024-05-09T22:18:11.839Z,98194.88
2024-05-09T22:20:45.106Z,98194.53
2024-05-09T22:23:16.650Z,98193.19
2024-05-09T22:25:44.002Z,98207.00
2024-05-09T22:28:18.019Z,98203.81
2024-05-09T22:30:47.082Z,98206.13
2024-05-09T22:33:18.020Z,98207.28
2024-05-09T22:35:45.499Z,98200.56
2024-05-09T22:38:15.445Z,98206.38
2024-05-09T22:40:48.035Z,98199.53
2024-05-09T22:43:25.158Z,98208.00
2024-05-09T22:45:54.951Z,98205.81
2024-05-09T22:48:26.300Z,98191.94
2024-05-09T22:50:54.488Z,98200.25
2024-05-09T22:53:28.300Z,98195.56
2024-05-09T22:55:55.449Z,98192.53
2024-05-09T22:58:26.069Z,98196.50
2024-05-09T23:00:53.599Z,98201.47
2024-05-09T23:03:23.598Z,98201.78
2024-05-09T23:05:50.754Z,98194.25
2024-05-09T23:08:20.999Z,98197.38
2024-05-09T23:10:53.711Z,98189.84
2024-05-09T23:13:23.827Z,98186.81
2024-05-09T23:15:51.092Z,98192.44
2024-05-09T23:18:21.127Z,98188.28
2024-05-09T23:20:48.379Z,98190.56
2024-05-09T23:23:18.281Z,98189.19
2024-05-09T23:25:45.566Z,98190.50
2024-05-09T23:28:16.075Z,98191.78
2024-05-09T23:30:43.333Z,98190.56
2024-05-09T23:33:14.899Z,98192.53
2024-05-09T23:35:43.469Z,98180.66
2024-05-09T23:38:13.658Z,98192.47
2024-05-09T23:40:42.327Z,98194.59
2024-05-09T23:43:13.960Z,98190.56
2024-05-09T23:45:42.419Z,98187.50
2024-05-09T23:48:13.313Z,98191.47
2024-05-09T23:50:41.340Z,98188.09
2024-05-09T23:53:11.616Z,98183.94
2024-05-09T23:55:39.483Z,98176.53
2024-05-09T23:58:11.489Z,98175.84
